Time;durP1;ratioP1;P1;durP2;ratioP2;P2;SDS_P1;SDS_P2;PMS_P1;PMS_P2;Temp;Humidity;BMP_temperature;BMP_pressure;BME280_temperature;BME280_humidity;BME280_pressure;Samples;Min_cycle;Max_cycle;Signal;HPM_P1;HPM_P2
2023/01/13 00:01:09;;;;;;;0.57;0.57;;;;;;;3.72;100.00;-1207.03;5071086;28;20536;-59
2023/01/13 00:03:37;;;;;;;0.70;0.70;;;;;;;3.66;100.00;-1207.19;5070649;28;20189;-60
2023/01/13 00:06:06;;;;;;;0.80;0.80;;;;;;;3.65;100.00;-1207.22;5071022;28;20192;-59
2023/01/13 00:08:34;;;;;;;0.60;0.60;;;;;;;3.65;100.00;-1207.22;5070918;28;20181;-59
2023/01/13 00:11:01;;;;;;;0.50;0.50;;;;;;;3.74;100.00;-1206.97;5071008;28;20552;-59
2023/01/13 00:13:30;;;;;;;0.80;0.80;;;;;;;3.77;100.00;-1838.66;5071046;28;20209;-60
2023/01/13 00:15:57;;;;;;;0.70;0.70;;;;;;;3.84;100.00;-2470.22;5074416;28;20190;-60
2023/01/13 00:18:24;;;;;;;0.60;0.60;;;;;;;3.84;100.00;-3101.81;5075220;28;20184;-60
2023/01/13 00:20:58;;;;;;;0.60;0.60;;;;;;;3.88;100.00;-3733.31;5074580;28;20216;-58
2023/01/13 00:23:27;;;;;;;0.63;0.63;;;;;;;3.84;100.00;-4048.97;5074532;28;20181;-58
2023/01/13 00:25:55;;;;;;;0.50;0.50;;;;;;;3.90;100.00;-4680.41;5074796;28;20624;-60
2023/01/13 00:28:22;;;;;;;0.60;0.60;;;;;;;4.00;100.00;-5312.03;5074685;28;20192;-58
2023/01/13 00:30:49;;;;;;;0.70;0.70;;;;;;;4.03;100.00;-5312.13;5074920;28;20610;-59
2023/01/13 00:33:16;;;;;;;0.73;0.73;;;;;;;3.98;100.00;-5627.56;5074432;28;20216;-58
2023/01/13 00:35:43;;;;;;;0.70;0.70;;;;;;;4.03;100.00;-5627.78;5074660;28;20176;-60
2023/01/13 00:38:10;;;;;;;0.70;0.70;;;;;;;3.94;100.00;-4996.19;5074330;28;20558;-60
2023/01/13 00:40:38;;;;;;;0.73;0.73;;;;;;;4.03;100.00;-5312.13;5073911;28;20211;-59
2023/01/13 00:43:22;;;;;;;0.80;0.80;;;;;;;4.12;100.00;-5628.16;5074078;28;20187;-60
2023/01/13 00:45:50;;;;;;;0.50;0.50;;;;;;;3.97;100.00;-4996.28;5073724;28;20189;-59
2023/01/13 00:48:17;;;;;;;0.63;0.63;;;;;;;4.08;100.00;-5312.31;5074196;28;20594;-59
2023/01/13 00:50:44;;;;;;;0.90;0.90;;;;;;;4.14;100.00;-5312.53;5074127;28;20537;-60
2023/01/13 00:53:12;;;;;;;0.77;0.77;;;;;;;4.20;100.00;-5312.72;5073466;28;20200;-59
2023/01/13 00:55:41;;;;;;;0.70;0.70;;;;;;;4.04;100.00;-4996.50;5073720;28;20284;-59
2023/01/13 00:58:07;;;;;;;0.90;0.90;;;;;;;4.25;100.00;-4681.34;5073859;28;20207;-60
2023/01/13 01:00:34;;;;;;;0.70;0.70;;;;;;;4.22;100.00;-3733.72;5073610;28;20196;-60
2023/01/13 01:03:01;;;;;;;0.60;0.60;;;;;;;4.17;100.00;-3101.84;5073675;28;20723;-59
2023/01/13 01:05:28;;;;;;;0.67;0.67;;;;;;;4.04;100.00;-3417.69;5073348;28;20192;-59
2023/01/13 01:07:55;;;;;;;0.80;0.80;;;;;;;4.07;100.00;-4049.34;5073345;28;20188;-59
2023/01/13 01:10:22;;;;;;;0.60;0.60;;;;;;;3.69;100.00;-3417.47;5073478;28;20206;-59
2023/01/13 01:12:51;;;;;;;0.70;0.70;;;;;;;4.04;100.00;-3101.84;5073149;28;20219;-60
2023/01/13 01:15:18;;;;;;;0.73;0.73;;;;;;;4.09;100.00;-3733.56;5073654;28;20671;-59
2023/01/13 01:17:45;;;;;;;0.50;0.50;;;;;;;4.14;100.00;-4049.47;5073484;28;20218;-59
2023/01/13 01:20:12;;;;;;;0.70;0.70;;;;;;;4.17;100.00;-3733.66;5072995;28;20219;-59
2023/01/13 01:22:39;;;;;;;0.53;0.53;;;;;;;3.94;100.00;-4049.13;5072944;28;20192;-59
2023/01/13 01:25:09;;;;;;;0.60;0.60;;;;;;;4.17;100.00;-3733.66;5072711;28;20490;-60
2023/01/13 01:27:36;;;;;;;0.63;0.63;;;;;;;4.22;100.00;-3733.72;5073302;28;20193;-59
2023/01/13 01:30:05;;;;;;;0.50;0.50;;;;;;;4.21;100.00;-3417.78;5072830;28;20193;-61
2023/01/13 01:32:33;;;;;;;0.53;0.53;;;;;;;4.25;100.00;-3733.75;5072751;28;20258;-59
2023/01/13 01:35:00;;;;;;;0.50;0.50;;;;;;;4.27;100.00;-3417.81;5072524;28;20232;-60
2023/01/13 01:37:27;;;;;;;0.50;0.50;;;;;;;4.24;100.00;-3101.84;5072989;28;20208;-59
2023/01/13 01:39:54;;;;;;;0.50;0.50;;;;;;;4.33;100.00;-3101.88;5072586;28;20189;-59
2023/01/13 01:45:15;;;;;;;0.40;0.40;;;;;;;4.27;100.00;-2469.84;5072722;28;20175;-59
2023/01/13 01:47:42;;;;;;;0.77;0.77;;;;;;;4.26;100.00;-2785.88;5072839;28;20184;-59
2023/01/13 01:50:11;;;;;;;0.50;0.50;;;;;;;4.14;100.00;-2785.91;5072430;28;20276;-60
2023/01/13 01:52:41;;;;;;;0.70;0.70;;;;;;;4.13;100.00;-2785.91;5072256;28;20244;-59
2023/01/13 01:55:13;;;;;;;0.50;0.50;;;;;;;4.24;100.00;-2469.84;5072495;28;20675;-58
2023/01/13 01:57:45;;;;;;;0.77;0.77;;;;;;;4.16;100.00;-2469.94;5072633;28;20618;-60
2023/01/13 02:00:14;;;;;;;0.70;0.70;;;;;;;4.21;100.00;-2469.88;5072404;28;20302;-60
2023/01/13 02:02:44;;;;;;;0.73;0.73;;;;;;;4.27;100.00;-2153.78;5072235;28;20177;-60
2023/01/13 02:05:12;;;;;;;0.63;0.63;;;;;;;4.24;100.00;-1837.75;5072076;28;20180;-59
2023/01/13 02:07:41;;;;;;;0.90;0.90;;;;;;;4.26;100.00;-1837.69;5072384;28;20559;-59
2023/01/13 02:10:10;;;;;;;0.70;0.70;;;;;;;4.24;100.00;-1521.63;5072291;28;20192;-58
2023/01/13 02:12:39;;;;;;;0.90;0.90;;;;;;;4.26;100.00;-1521.59;5072135;28;20541;-59
2023/01/13 02:15:08;;;;;;;0.80;0.80;;;;;;;4.24;100.00;-1205.50;5072230;28;20593;-60
2023/01/13 02:18:02;;;;;;;0.80;0.80;;;;;;;4.33;100.00;-1837.56;5071816;28;20618;-61
2023/01/13 02:20:43;;;;;;;0.80;0.80;;;;;;;4.32;100.00;-1521.44;5071730;28;20208;-60
2023/01/13 02:27:24;;;;;;;1.00;1.00;;;;;;;4.28;100.00;-889.19;5072013;28;20621;-58
2023/01/13 02:32:59;;;;;;;0.90;0.90;;;;;;;4.17;100.00;-889.59;5071654;28;20206;-59
2023/01/13 02:35:35;;;;;;;0.90;0.90;;;;;;;4.29;100.00;-1521.50;5071438;28;20235;-59
2023/01/13 02:38:03;;;;;;;1.10;1.10;;;;;;;4.32;100.00;-2153.69;5071455;28;20185;-60
2023/01/13 02:40:37;;;;;;;1.30;1.30;;;;;;;4.30;100.00;-1521.50;5071476;28;20211;-59
2023/01/13 02:46:01;;;;;;;1.07;1.07;;;;;;;4.31;100.00;-572.84;5071522;28;20180;-59
2023/01/13 02:48:31;;;;;;;0.83;0.83;;;;;;;4.15;100.00;-573.47;5071381;28;20579;-59
2023/01/13 02:51:03;;;;;;;1.10;1.10;;;;;;;4.27;100.00;-889.22;5071364;28;20189;-60
2023/01/13 02:53:35;;;;;;;0.90;0.90;;;;;;;4.24;100.00;-573.13;5071634;28;20270;-59
2023/01/13 02:56:04;;;;;;;1.10;1.10;;;;;;;4.22;100.00;-573.22;5071334;28;20196;-59
2023/01/13 02:58:33;;;;;;;1.00;1.00;;;;;;;4.27;100.00;-573.03;5071695;28;20683;-60
2023/01/13 03:01:02;;;;;;;0.90;0.90;;;;;;;4.15;100.00;-573.47;5071174;28;20189;-59
2023/01/13 03:03:29;;;;;;;1.10;0.97;;;;;;;4.24;100.00;-573.13;5071487;28;20631;-58
2023/01/13 03:06:02;;;;;;;0.90;0.90;;;;;;;4.21;100.00;-573.25;5071591;28;20189;-59
2023/01/13 03:08:41;;;;;;;1.00;1.00;;;;;;;4.24;100.00;-1205.50;5071766;28;20180;-59
2023/01/13 03:11:10;;;;;;;1.00;1.00;;;;;;;4.27;100.00;-1205.41;5071488;28;20627;-59
2023/01/13 03:14:00;;;;;;;1.00;1.00;;;;;;;4.22;100.00;-573.19;5070960;28;20215;-58
2023/01/13 03:16:38;;;;;;;1.20;1.20;;;;;;;4.24;100.00;-573.13;5071520;28;20481;-59
2023/01/13 03:19:21;;;;;;;1.07;0.90;;;;;;;4.10;100.00;374.91;5071086;28;20236;-58
2023/01/13 03:21:55;;;;;;;1.20;1.20;;;;;;;3.95;100.00;1322.66;5071168;28;20223;-60
2023/01/13 03:24:28;;;;;;;0.83;0.83;;;;;;;4.13;100.00;1007.63;5071049;28;20276;-59
2023/01/13 03:27:02;;;;;;;0.83;0.83;;;;;;;4.22;100.00;1008.16;5071049;28;20272;-60
2023/01/13 03:29:34;;;;;;;0.87;0.87;;;;;;;4.14;100.00;1640.41;5071326;28;20281;-59
2023/01/13 03:32:08;;;;;;;0.80;0.80;;;;;;;4.11;100.00;1956.56;5071345;28;20185;-60
2023/01/13 03:34:43;;;;;;;1.33;1.20;;;;;;;3.99;100.00;2271.88;5071007;28;20232;-59
2023/01/13 03:37:11;;;;;;;1.00;1.00;;;;;;;4.10;100.00;2905.78;5070986;28;20189;-58
2023/01/13 03:39:43;;;;;;;0.80;0.80;;;;;;;4.19;100.00;2590.03;5071225;28;20188;-59
2023/01/13 03:42:15;;;;;;;1.20;1.20;;;;;;;3.94;100.00;2904.22;5071172;28;20185;-60
2023/01/13 03:44:46;;;;;;;1.00;1.00;;;;;;;4.23;100.00;2590.41;5071126;28;20631;-58
2023/01/13 03:47:20;;;;;;;0.87;0.87;;;;;;;4.01;100.00;2588.47;5071219;28;20224;-61
2023/01/13 03:49:54;;;;;;;1.03;1.03;;;;;;;3.94;100.00;3220.63;5073127;28;20199;-59
2023/01/13 03:52:25;;;;;;;1.00;1.00;;;;;;;3.93;100.00;3536.97;5074656;28;20199;-60
2023/01/13 03:54:57;;;;;;;0.80;0.80;;;;;;;3.95;100.00;4803.28;5074875;28;20236;-60
2023/01/13 03:57:29;;;;;;;1.53;0.80;;;;;;;3.95;100.00;5753.16;5074858;28;20562;-59
2023/01/13 04:00:00;;;;;;;0.90;0.90;;;;;;;3.92;100.00;7019.63;5074581;28;20196;-59
2023/01/13 04:02:43;;;;;;;0.70;0.70;;;;;;;3.85;100.00;7335.13;5074780;28;20626;-61
2023/01/13 04:05:11;;;;;;;1.07;1.07;;;;;;;3.91;100.00;8603.72;5074650;28;20603;-60
2023/01/13 04:07:47;;;;;;;0.87;0.87;;;;;;;3.85;100.00;8919.47;5074391;28;20176;-58
2023/01/13 04:10:19;;;;;;;2.00;0.90;;;;;;;3.93;100.00;9872.09;5074328;28;20189;-58
2023/01/13 04:13:01;;;;;;;0.97;0.97;;;;;;;3.84;100.00;9553.19;5074430;28;20258;-59
2023/01/13 04:15:30;;;;;;;1.17;1.17;;;;;;;3.84;100.00;11772.84;5073144;28;20194;-59
2023/01/13 04:18:09;;;;;;;1.03;1.03;;;;;;;3.85;100.00;12407.53;5074187;28;20196;-58
2023/01/13 04:20:36;;;;;;;1.60;1.60;;;;;;;3.71;100.00;13355.69;5074503;28;20185;-59
2023/01/13 04:23:03;;;;;;;1.40;1.30;;;;;;;3.71;100.00;14942.50;5073953;28;20192;-59
2023/01/13 04:25:30;;;;;;;1.37;1.37;;;;;;;3.81;100.00;15897.88;5074165;28;20185;-59
2023/01/13 04:27:57;;;;;;;2.20;1.30;;;;;;;3.86;100.00;15264.31;5074341;28;20258;-59
2023/01/13 04:30:24;;;;;;;1.40;1.40;;;;;;;3.76;100.00;16214.06;5073904;28;20272;-60
2023/01/13 04:32:50;;;;;;;1.40;1.40;;;;;;;3.81;100.00;15580.31;5073975;28;20201;-60
2023/01/13 04:35:19;;;;;;;1.33;1.33;;;;;;;3.72;100.00;16212.78;5073701;28;20606;-59
2023/01/13 04:37:45;;;;;;;1.70;1.60;;;;;;;3.77;100.00;16531.81;5074326;28;20180;-60
2023/01/13 04:40:13;;;;;;;2.20;2.00;;;;;;;3.64;100.00;17798.25;5073840;28;20188;-59
2023/01/13 04:42:39;;;;;;;1.70;1.70;;;;;;;3.73;100.00;16530.69;5073740;28;20189;-60
2023/01/13 04:45:08;;;;;;;1.60;1.60;;;;;;;3.73;100.00;16530.53;5073943;28;20505;-59
2023/01/13 04:47:35;;;;;;;1.53;1.53;;;;;;;3.69;100.00;17164.63;5073609;28;20193;-59
2023/01/13 04:50:02;;;;;;;1.53;1.53;;;;;;;3.57;100.00;17795.84;5073656;28;20196;-59
2023/01/13 04:52:30;;;;;;;1.77;1.67;;;;;;;3.62;100.00;16844.88;5074053;28;20548;-59
2023/01/13 04:54:57;;;;;;;1.83;1.77;;;;;;;3.46;100.00;17792.25;5073742;28;20575;-59
2023/01/13 04:57:24;;;;;;;2.30;2.20;;;;;;;3.48;100.00;16840.28;5073435;28;20185;-59
2023/01/13 04:59:52;;;;;;;2.27;2.17;;;;;;;3.46;100.00;15887.16;5072919;28;20279;-59
2023/01/13 05:02:19;;;;;;;2.50;2.40;;;;;;;3.56;100.00;16842.75;5073357;28;20524;-59
2023/01/13 05:04:46;;;;;;;2.40;2.30;;;;;;;3.65;100.00;17481.09;5073404;28;20230;-58
2023/01/13 05:07:13;;;;;;;2.30;2.20;;;;;;;3.47;100.00;18745.31;5073834;28;20563;-61
2023/01/13 05:09:42;;;;;;;2.20;2.10;;;;;;;3.66;100.00;18434.53;5073151;28;20188;-59
2023/01/13 05:17:40;;;;;;;2.60;2.13;;;;;;;3.62;100.00;17479.91;5073291;28;20184;-61
2023/01/13 05:20:08;;;;;;;3.00;2.87;;;;;;;3.69;100.00;17482.28;5073380;28;20185;-58
2023/01/13 05:25:24;;;;;;;2.50;2.40;;;;;;;3.52;100.00;16524.09;5046759;28;20268;-61
2023/01/13 05:27:53;;;;;;;2.40;2.30;;;;;;;3.75;100.00;16848.78;5072889;28;20181;-59
2023/01/13 05:30:21;;;;;;;2.93;2.83;;;;;;;3.72;100.00;17165.44;5073164;28;20223;-60
2023/01/13 05:32:48;;;;;;;3.07;2.90;;;;;;;3.78;100.00;15261.91;5073129;28;20291;-60
2023/01/13 05:35:15;;;;;;;3.10;2.80;;;;;;;3.56;100.00;15572.84;5072661;28;20323;-59
2023/01/13 05:37:43;;;;;;;3.10;3.00;;;;;;;3.78;100.00;15261.91;5073137;28;20610;-59
2023/01/13 05:43:19;;;;;;;3.17;3.07;;;;;;;3.81;100.00;14627.97;5072646;28;20184;-60
2023/01/13 05:45:47;;;;;;;4.03;2.70;;;;;;;3.43;100.00;14299.72;5072618;28;20177;-60
2023/01/13 05:48:15;;;;;;;3.27;3.00;;;;;;;3.78;100.00;14309.69;5072843;28;20621;-59
2023/01/13 05:50:42;;;;;;;3.80;3.60;;;;;;;3.80;100.00;14627.53;5072626;28;20177;-59
2023/01/13 05:53:09;;;;;;;3.53;3.43;;;;;;;3.80;100.00;15262.66;5072784;28;20623;-59
2023/01/13 05:55:37;;;;;;;3.70;3.60;;;;;;;3.78;100.00;14626.97;5072235;28;20205;-60
2023/01/13 05:58:06;;;;;;;4.63;4.43;;;;;;;3.84;100.00;13359.19;5072679;28;20189;-60
2023/01/13 06:00:35;;;;;;;7.33;3.70;;;;;;;3.87;100.00;12408.03;5072197;28;20196;-61
2023/01/13 06:03:02;;;;;;;3.53;3.33;;;;;;;3.87;100.00;13042.66;5072252;28;20189;-59
2023/01/13 06:05:30;;;;;;;2.80;2.70;;;;;;;3.76;100.00;13357.03;5072397;28;20222;-60
2023/01/13 06:07:57;;;;;;;3.03;2.80;;;;;;;3.81;100.00;13041.06;5072723;28;20548;-60
2023/01/13 06:10:26;;;;;;;3.53;3.33;;;;;;;3.85;100.00;13042.13;5071950;28;20173;-61
2023/01/13 06:12:54;;;;;;;3.30;3.13;;;;;;;3.66;100.00;12402.72;5071986;28;20230;-60
2023/01/13 06:15:22;;;;;;;3.27;3.17;;;;;;;3.81;100.00;12089.31;5072177;28;20675;-59
2023/01/13 06:17:49;;;;;;;2.90;2.80;;;;;;;3.82;100.00;12406.78;5071929;28;20185;-61
2023/01/13 06:20:17;;;;;;;3.43;3.27;;;;;;;3.82;100.00;12723.91;5072091;28;20618;-59
2023/01/13 06:22:47;;;;;;;4.00;3.80;;;;;;;3.87;100.00;13042.53;5071836;28;20250;-58
2023/01/13 06:25:22;;;;;;;3.63;3.53;;;;;;;3.96;100.00;12410.31;5072260;28;20176;-59
2023/01/13 06:27:50;;;;;;;3.47;3.27;;;;;;;3.96;100.00;13045.03;5071836;28;20242;-58
2023/01/13 06:30:18;;;;;;;4.00;3.80;;;;;;;3.97;100.00;13680.13;5072070;28;20256;-59
2023/01/13 06:32:52;;;;;;;3.97;3.77;;;;;;;3.96;100.00;13044.91;5071650;28;20200;-60
2023/01/13 06:35:22;;;;;;;3.50;3.40;;;;;;;4.06;100.00;12412.88;5071497;28;20599;-58
2023/01/13 06:37:55;;;;;;;3.43;3.33;;;;;;;4.14;100.00;11462.66;5072282;28;20211;-58
2023/01/13 06:40:22;;;;;;;4.90;3.27;;;;;;;4.14;100.00;11780.13;5071861;28;20547;-59
2023/01/13 06:45:35;;;;;;;4.00;3.70;;;;;;;4.12;100.00;10827.75;5071850;28;20223;-59
2023/01/13 06:48:03;;;;;;;4.80;4.10;;;;;;;4.13;100.00;8924.97;5071768;28;20195;-58
2023/01/13 06:50:30;;;;;;;3.80;3.70;;;;;;;4.16;100.00;8291.25;5071639;28;20191;-58
2023/01/13 06:52:57;;;;;;;3.77;3.57;;;;;;;4.22;100.00;8926.53;5071397;28;20223;-60
2023/01/13 06:55:24;;;;;;;3.57;3.37;;;;;;;4.16;100.00;7974.34;5071411;28;20325;-59
2023/01/13 06:57:52;;;;;;;4.07;3.93;;;;;;;4.13;100.00;7656.91;5071431;28;20192;-60
2023/01/13 07:00:20;;;;;;;4.17;3.83;;;;;;;4.06;100.00;7021.91;5071480;28;20639;-59
2023/01/13 07:02:48;;;;;;;4.37;4.07;;;;;;;4.11;100.00;6705.88;5071127;28;20643;-58
2023/01/13 07:05:17;;;;;;;4.23;4.03;;;;;;;4.06;100.00;6388.28;5071616;28;20263;-60
2023/01/13 07:07:46;;;;;;;4.03;3.83;;;;;;;4.21;100.00;6073.59;5071122;28;20196;-58
2023/01/13 07:10:20;;;;;;;4.70;4.50;;;;;;;3.92;100.00;6702.84;5071363;28;20548;-58
2023/01/13 07:15:33;;;;;;;4.37;4.03;;;;;;;4.03;100.00;6070.97;5071033;28;20204;-58
2023/01/13 07:18:00;;;;;;;5.07;4.87;;;;;;;4.11;100.00;6072.25;5070965;28;20252;-60
2023/01/13 07:20:28;;;;;;;6.57;6.20;;;;;;;4.23;100.00;5757.06;5070842;28;20730;-59
2023/01/13 07:22:56;;;;;;;4.93;4.67;;;;;;;4.23;100.00;6390.75;5070880;28;20184;-59
2023/01/13 07:25:23;;;;;;;4.60;4.40;;;;;;;4.26;100.00;6391.22;5074615;28;20181;-59
2023/01/13 07:27:50;;;;;;;4.63;4.43;;;;;;;4.07;100.00;7022.09;5075201;28;20628;-59
2023/01/13 07:30:18;;;;;;;4.93;4.67;;;;;;;4.08;100.00;6705.41;5075270;28;20585;-59
2023/01/13 07:32:45;;;;;;;6.37;6.07;;;;;;;4.16;100.00;6389.75;5075171;28;20204;-58
2023/01/13 07:35:12;;;;;;;9.73;8.90;;;;;;;4.19;100.00;7023.91;5074844;28;20242;-59
2023/01/13 07:37:40;;;;;;;15.83;11.47;;;;;;;4.16;100.00;7340.31;5078764;28;20188;-60
2023/01/13 07:40:09;;;;;;;9.47;8.80;;;;;;;4.10;100.00;7022.59;5081258;28;20192;-60
2023/01/13 07:45:22;;;;;;;4.30;4.10;;;;;;;4.13;100.00;7023.06;5075124;28;20703;-58
2023/01/13 07:47:54;;;;;;;4.23;3.93;;;;;;;4.13;100.00;7339.97;5074947;28;20623;-61
2023/01/13 07:50:22;;;;;;;3.90;3.60;;;;;;;4.11;100.00;7656.47;5074943;28;20184;-59
2023/01/13 07:52:51;;;;;;;4.00;3.80;;;;;;;4.08;100.00;7656.03;5085319;28;20608;-59
2023/01/13 07:55:20;;;;;;;3.77;3.60;;;;;;;4.11;100.00;7973.44;5091487;28;20211;-59
2023/01/13 07:57:48;;;;;;;3.30;3.10;;;;;;;4.16;100.00;8291.25;5094488;28;20215;-59
2023/01/13 08:00:16;;;;;;;4.10;3.90;;;;;;;4.16;100.00;7657.28;5094136;28;20269;-59
2023/01/13 08:02:43;;;;;;;3.40;3.30;;;;;;;4.18;100.00;7340.66;5094575;28;20195;-60
2023/01/13 08:05:10;;;;;;;3.70;3.50;;;;;;;4.17;100.00;7023.56;5094266;28;20226;-58
2023/01/13 08:07:37;;;;;;;4.00;3.80;;;;;;;4.19;100.00;6390.13;5081708;28;20188;-58
2023/01/13 08:10:07;;;;;;;3.90;3.70;;;;;;;4.21;100.00;5123.28;5094034;28;20228;-59
2023/01/13 08:15:18;;;;;;;5.37;4.90;;;;;;;4.29;100.00;4174.13;5093950;28;20199;-59
2023/01/13 08:17:45;;;;;;;7.60;7.10;;;;;;;4.32;100.00;3857.78;5093939;28;20192;-58
2023/01/13 08:20:12;;;;;;;7.67;6.97;;;;;;;4.28;100.00;4173.94;5094351;28;20606;-58
2023/01/13 08:22:39;;;;;;;6.97;6.47;;;;;;;4.39;100.00;3225.19;5094038;28;20199;-58
2023/01/13 08:25:08;;;;;;;9.70;8.53;;;;;;;4.28;100.00;2590.88;5093598;28;20185;-60
2023/01/13 08:27:35;;;;;;;7.30;6.83;;;;;;;4.23;100.00;1957.44;5093859;28;20192;-60
2023/01/13 08:30:02;;;;;;;5.30;5.10;;;;;;;4.21;100.00;2906.75;5093793;28;20194;-58
2023/01/13 08:32:29;;;;;;;7.73;5.83;;;;;;;4.16;100.00;2273.34;5094365;28;20184;-59
2023/01/13 08:34:57;;;;;;;5.03;4.83;;;;;;;4.33;100.00;1641.81;5093494;28;20251;-59
2023/01/13 08:37:24;;;;;;;5.07;4.87;;;;;;;4.35;100.00;1009.06;5094006;28;20258;-59
2023/01/13 08:39:51;;;;;;;7.10;6.70;;;;;;;4.39;100.00;1009.28;5094088;28;20191;-59
2023/01/13 08:42:19;;;;;;;4.77;4.57;;;;;;;4.38;100.00;1009.22;5094113;28;20295;-59
2023/01/13 08:44:46;;;;;;;4.60;4.40;;;;;;;4.32;100.00;692.44;5094342;28;20181;-61
2023/01/13 08:47:16;;;;;;;4.97;4.70;;;;;;;4.36;100.00;-1205.13;5094261;28;20185;-60
2023/01/13 08:49:45;;;;;;;5.87;5.57;;;;;;;4.22;100.00;-1521.69;5093777;28;20195;-59
2023/01/13 08:52:11;;;;;;;6.00;5.60;;;;;;;4.48;100.00;-2153.47;5094411;28;20230;-59
2023/01/13 08:54:39;;;;;;;5.77;5.47;;;;;;;4.42;100.00;-1521.19;5093710;28;20589;-59
2023/01/13 08:57:06;;;;;;;5.33;4.97;;;;;;;4.50;100.00;-1837.22;5093930;28;20630;-60
2023/01/13 08:59:34;;;;;;;5.90;5.40;;;;;;;4.55;100.00;-1520.84;5093363;28;20203;-59
2023/01/13 09:02:02;;;;;;;4.60;4.30;;;;;;;4.49;100.00;-888.47;5093731;28;20593;-58
2023/01/13 09:04:29;;;;;;;4.70;4.50;;;;;;;4.63;100.00;-2785.72;5093526;28;20195;-58
2023/01/13 09:06:56;;;;;;;4.60;4.30;;;;;;;4.63;100.00;-4366.34;5093833;28;20279;-60
2023/01/13 09:09:26;;;;;;;5.00;4.80;;;;;;;4.68;100.00;-5630.50;5093406;28;20188;-58
2023/01/13 09:14:39;;;;;;;5.40;5.00;;;;;;;4.72;100.00;-7525.94;5093549;28;20179;-61
2023/01/13 09:17:06;;;;;;;5.67;5.27;;;;;;;4.69;100.00;-7841.47;5093644;28;20249;-58
2023/01/13 09:19:34;;;;;;;4.80;4.60;;;;;;;4.59;100.00;-7840.72;5093443;28;20320;-59
2023/01/13 09:22:01;;;;;;;5.10;4.60;;;;;;;4.68;100.00;-8157.09;5091940;28;20186;-59
2023/01/13 09:24:28;;;;;;;6.27;5.97;;;;;;;4.61;100.00;-8156.53;5093633;28;20650;-59
2023/01/13 09:26:55;;;;;;;5.10;4.90;;;;;;;4.71;100.00;-8473.09;5093435;28;20200;-60
2023/01/13 09:29:22;;;;;;;4.87;4.67;;;;;;;4.70;100.00;-8157.28;5092141;28;20180;-60
2023/01/13 09:31:51;;;;;;;5.00;4.80;;;;;;;4.76;100.00;-7842.00;5093295;28;20562;-59
2023/01/13 09:37:06;;;;;;;4.93;4.40;;;;;;;4.88;100.00;-8158.78;5093017;28;20184;-59
2023/01/13 09:39:33;;;;;;;5.53;5.23;;;;;;;4.76;100.00;-8157.78;5093353;28;20708;-59
2023/01/13 09:45:00;;;;;;;5.43;5.17;;;;;;;4.87;100.00;-8158.72;5093076;28;20590;-58
2023/01/13 09:47:32;;;;;;;4.77;4.57;;;;;;;4.76;100.00;-7842.00;5092074;28;20187;-60
2023/01/13 09:50:08;;;;;;;4.93;4.73;;;;;;;4.90;100.00;-8158.97;5093058;28;20188;-60
2023/01/13 09:52:36;;;;;;;5.17;4.97;;;;;;;4.95;100.00;-8475.22;5092744;28;20290;-59
2023/01/13 09:55:10;;;;;;;4.77;4.50;;;;;;;5.00;100.00;-8475.66;5091535;28;20220;-60
2023/01/13 09:57:39;;;;;;;5.07;4.87;;;;;;;4.87;100.00;-7842.84;5092949;28;20286;-59
2023/01/13 10:00:14;;;;;;;4.40;4.20;;;;;;;5.02;100.00;-8159.94;5092957;28;20626;-59
2023/01/13 10:03:04;;;;;;;5.23;4.83;;;;;;;4.90;100.00;-8158.97;5092867;28;20207;-61
2023/01/13 10:05:36;;;;;;;5.03;4.83;;;;;;;4.87;100.00;-8158.72;5092456;28;20220;-60
2023/01/13 10:08:11;;;;;;;5.10;4.90;;;;;;;4.86;100.00;-8158.59;5091650;28;20206;-60
2023/01/13 10:10:42;;;;;;;4.87;4.67;;;;;;;5.00;100.00;-8159.75;5092840;28;20200;-59
2023/01/13 10:13:15;;;;;;;5.17;4.97;;;;;;;4.93;100.00;-7843.38;5092888;28;20519;-58
2023/01/13 10:15:55;;;;;;;5.10;4.90;;;;;;;4.99;100.00;-7843.78;5092262;28;20204;-60
2023/01/13 10:18:29;;;;;;;5.67;5.37;;;;;;;5.04;100.00;-8160.09;5092328;28;20187;-60
2023/01/13 10:21:02;;;;;;;5.83;5.53;;;;;;;5.18;100.00;-8161.22;5091357;28;20764;-59
2023/01/13 10:23:47;;;;;;;5.87;5.57;;;;;;;5.06;100.00;-7844.38;5092194;28;20643;-60
2023/01/13 10:26:27;;;;;;;5.40;5.20;;;;;;;5.17;100.00;-7529.16;5091859;28;20180;-59
2023/01/13 10:28:56;;;;;;;5.73;5.43;;;;;;;5.26;100.00;-7845.91;5091953;28;20196;-59
2023/01/13 10:31:24;;;;;;;5.40;5.10;;;;;;;5.32;100.00;-7214.16;5092461;28;20659;-60
2023/01/13 10:34:00;;;;;;;5.50;5.23;;;;;;;5.25;100.00;-7529.78;5091853;28;20226;-58
2023/01/13 10:36:27;;;;;;;5.93;5.63;;;;;;;5.20;100.00;-7213.34;5091941;28;20634;-59
2023/01/13 10:39:07;;;;;;;5.77;5.47;;;;;;;5.29;100.00;-6897.81;5091918;28;20194;-58
2023/01/13 10:41:35;;;;;;;5.73;5.33;;;;;;;5.37;100.00;-6582.16;5091683;28;20234;-59
2023/01/13 10:44:05;;;;;;;5.73;5.27;;;;;;;5.20;100.00;-5632.66;5091903;28;20239;-59
2023/01/13 10:46:33;;;;;;;5.87;5.57;;;;;;;5.29;100.00;-5000.47;5092458;28;20642;-58
2023/01/13 10:49:03;;;;;;;5.10;4.90;;;;;;;5.36;100.00;-5949.59;5091771;28;20191;-60
2023/01/13 10:51:42;;;;;;;5.70;5.40;;;;;;;5.29;100.00;-6265.50;5091797;28;20276;-59
2023/01/13 10:54:19;;;;;;;5.20;5.00;;;;;;;5.40;100.00;-6266.09;5091272;28;20286;-59
2023/01/13 10:56:46;;;;;;;5.43;5.13;;;;;;;5.40;100.00;-4051.50;5091814;28;20204;-59
2023/01/13 10:59:17;;;;;;;5.63;5.37;;;;;;;5.29;100.00;-3101.97;5091278;28;20184;-59
2023/01/13 11:02:00;;;;;;;4.40;4.20;;;;;;;5.18;100.00;-3418.38;5091799;28;20233;-58
2023/01/13 11:04:36;;;;;;;4.93;4.73;;;;;;;5.38;100.00;-3735.00;5091586;28;20270;-59
2023/01/13 11:07:04;;;;;;;5.20;4.90;;;;;;;5.45;100.00;-4051.59;5089976;28;20225;-59
2023/01/13 11:09:32;;;;;;;5.60;5.30;;;;;;;5.44;100.00;-3418.53;5091169;28;20184;-60
2023/01/13 11:12:01;;;;;;;5.53;5.23;;;;;;;5.50;100.00;-3101.97;5091704;28;20690;-60
2023/01/13 11:14:38;;;;;;;6.83;6.20;;;;;;;5.50;100.00;-2785.34;5092004;28;20267;-59
2023/01/13 11:17:23;;;;;;;5.77;5.53;;;;;;;5.63;100.00;-2785.28;5075773;28;20639;-59
2023/01/13 11:19:58;;;;;;;4.90;4.70;;;;;;;5.76;100.00;-1517.88;5071271;28;20188;-59
2023/01/13 11:22:29;;;;;;;5.53;5.23;;;;;;;5.60;100.00;383.19;5071439;28;20188;-58
2023/01/13 11:25:01;;;;;;;7.67;6.90;;;;;;;5.98;100.00;702.56;5071168;28;20184;-59
2023/01/13 11:27:39;;;;;;;6.53;6.23;;;;;;;6.01;100.00;1971.91;5071668;28;20616;-59
2023/01/13 11:30:19;;;;;;;5.70;5.40;;;;;;;6.03;100.00;2924.34;5071546;28;20674;-60
2023/01/13 11:33:00;;;;;;;5.43;5.23;;;;;;;6.08;100.00;2289.97;5071384;28;20230;-59
2023/01/13 11:35:31;;;;;;;5.47;5.27;;;;;;;6.19;100.00;2608.44;5071337;28;20661;-59
2023/01/13 11:38:06;;;;;;;5.93;5.63;;;;;;;6.22;100.00;3561.41;5071747;28;20184;-60
2023/01/13 11:40:36;;;;;;;5.90;5.60;;;;;;;6.05;100.00;2607.09;5071336;28;20218;-59
2023/01/13 11:43:11;;;;;;;6.07;5.77;;;;;;;6.40;100.00;2928.00;5071442;28;20185;-59
2023/01/13 11:45:42;;;;;;;6.50;6.17;;;;;;;6.39;100.00;5470.13;5071290;28;20635;-59
2023/01/13 11:48:14;;;;;;;6.43;6.13;;;;;;;6.20;100.00;8010.84;5070843;28;20234;-59
2023/01/13 11:50:49;;;;;;;5.33;5.13;;;;;;;6.21;100.00;8011.03;5071307;28;20592;-60
2023/01/13 11:53:44;;;;;;;6.93;6.60;;;;;;;6.06;100.00;7372.50;5070922;28;20196;-60
2023/01/13 11:56:26;;;;;;;6.27;5.87;;;;;;;6.13;100.00;4195.72;5068402;28;20328;-59
2023/01/13 11:59:28;;;;;;;6.40;6.10;;;;;;;6.18;100.00;4831.66;5069758;28;20184;-60
2023/01/13 12:02:16;;;;;;;6.43;6.13;;;;;;;6.13;100.00;6419.91;5070816;28;20180;-58
2023/01/13 12:04:53;;;;;;;6.13;5.83;;;;;;;6.14;100.00;6102.22;5070889;28;20195;-59
2023/01/13 12:07:36;;;;;;;5.93;5.63;;;;;;;6.21;100.00;6421.16;5070665;28;20200;-58
2023/01/13 12:10:08;;;;;;;6.23;5.93;;;;;;;6.01;100.00;7371.56;5071881;28;20208;-58
2023/01/13 12:12:48;;;;;;;6.20;5.90;;;;;;;6.27;100.00;8012.13;5074287;28;20188;-59
2023/01/13 12:15:51;;;;;;;5.57;5.33;;;;;;;6.23;100.00;8647.69;5074300;28;20184;-59
2023/01/13 12:18:34;;;;;;;6.17;5.87;;;;;;;6.14;100.00;8645.84;5063674;28;20310;-59
2023/01/13 12:21:18;;;;;;;6.10;5.70;;;;;;;6.34;100.00;7695.38;5074584;28;20184;-59
2023/01/13 12:24:06;;;;;;;6.40;6.00;;;;;;;6.24;100.00;7693.53;5074253;28;20242;-59
2023/01/13 12:26:39;;;;;;;5.97;5.67;;;;;;;6.23;100.00;7693.34;5078113;28;20207;-59
2023/01/13 12:29:12;;;;;;;8.53;6.07;;;;;;;6.28;100.00;6740.19;5073634;28;20205;-59
2023/01/13 12:31:41;;;;;;;7.20;6.60;;;;;;;6.27;100.00;6422.09;5073945;28;20216;-60
2023/01/13 12:34:26;;;;;;;6.73;6.33;;;;;;;6.33;100.00;6423.09;5074049;28;20236;-59
2023/01/13 12:37:02;;;;;;;7.27;6.77;;;;;;;6.45;100.00;7697.22;5073503;28;20205;-59